createdAt,value
2022-08-16T00:02:13.216Z,100.00
2022-08-16T00:04:41.111Z,100.00
2022-08-16T00:07:08.548Z,100.00
2022-08-16T00:09:37.503Z,100.00
2022-08-16T00:12:09.392Z,100.00
2022-08-16T00:14:36.845Z,100.00
2022-08-16T00:17:18.842Z,100.00
2022-08-16T00:19:49.161Z,100.00
2022-08-16T00:22:25.052Z,100.00
2022-08-16T00:24:54.452Z,100.00
2022-08-16T00:27:22.390Z,100.00
2022-08-16T00:30:00.828Z,100.00
2022-08-16T00:32:38.511Z,100.00
2022-08-16T00:35:13.255Z,100.00
2022-08-16T00:37:56.842Z,100.00
2022-08-16T00:40:34.568Z,100.00
2022-08-16T00:43:12.096Z,100.00
2022-08-16T00:45:58.285Z,100.00
2022-08-16T00:48:31.285Z,100.00
2022-08-16T00:51:01.008Z,100.00
2022-08-16T00:53:30.627Z,100.00
2022-08-16T00:56:05.451Z,100.00
2022-08-16T00:58:35.944Z,100.00
2022-08-16T01:01:08.435Z,100.00
2022-08-16T01:03:41.704Z,100.00
2022-08-16T01:06:39.764Z,100.00
2022-08-16T01:09:00.549Z,100.00
2022-08-16T01:11:29.403Z,100.00
2022-08-16T01:14:02.476Z,100.00
2022-08-16T01:16:31.210Z,100.00
2022-08-16T01:19:04.442Z,100.00
2022-08-16T01:21:42.773Z,100.00
2022-08-16T01:24:52.890Z,100.00
2022-08-16T01:27:10.202Z,100.00
2022-08-16T01:29:57.765Z,100.00
2022-08-16T01:32:41.152Z,100.00
2022-08-16T01:35:16.896Z,100.00
2022-08-16T01:37:53.987Z,100.00
2022-08-16T01:40:27.266Z,100.00
2022-08-16T01:42:55.915Z,100.00
2022-08-16T01:45:24.376Z,100.00
2022-08-16T01:48:20.254Z,100.00
2022-08-16T01:51:09.333Z,100.00
2022-08-16T01:53:40.567Z,100.00
2022-08-16T01:56:23.380Z,100.00
2022-08-16T01:58:54.554Z,100.00
2022-08-16T02:01:22.231Z,100.00
2022-08-16T02:03:50.270Z,100.00
2022-08-16T02:06:33.850Z,100.00
2022-08-16T02:09:07.143Z,100.00
2022-08-16T02:11:47.855Z,100.00
2022-08-16T02:14:22.278Z,100.00
2022-08-16T02:16:50.612Z,100.00
2022-08-16T02:19:20.278Z,100.00
2022-08-16T02:22:08.249Z,100.00
2022-08-16T02:24:45.787Z,100.00
2022-08-16T02:27:15.613Z,100.00
2022-08-16T02:29:43.628Z,100.00
2022-08-16T02:32:51.100Z,100.00
2022-08-16T02:35:06.425Z,100.00
2022-08-16T02:37:51.391Z,100.00
2022-08-16T02:40:22.060Z,100.00
2022-08-16T02:42:51.894Z,100.00
2022-08-16T02:45:24.840Z,100.00
2022-08-16T02:48:00.592Z,100.00
2022-08-16T02:50:55.053Z,100.00
2022-08-16T02:53:18.472Z,100.00
2022-08-16T02:55:51.276Z,100.00
2022-08-16T02:58:20.279Z,100.00
2022-08-16T03:00:53.368Z,100.00
2022-08-16T03:03:24.419Z,100.00
2022-08-16T03:05:52.394Z,100.00
2022-08-16T03:08:51.316Z,100.00
2022-08-16T03:11:16.609Z,100.00
2022-08-16T03:13:48.235Z,100.00
2022-08-16T03:16:38.470Z,100.00
2022-08-16T03:19:06.734Z,100.00
2022-08-16T03:21:37.686Z,100.00
2022-08-16T03:24:29.037Z,100.00
2022-08-16T03:26:54.147Z,100.00
2022-08-16T03:29:30.144Z,100.00
2022-08-16T03:31:59.220Z,100.00
2022-08-16T03:34:27.456Z,100.00
2022-08-16T03:36:55.248Z,100.00
2022-08-16T03:39:23.289Z,100.00
2022-08-16T03:41:59.614Z,100.00
2022-08-16T03:44:40.702Z,100.00
2022-08-16T03:47:18.544Z,100.00
2022-08-16T03:49:51.620Z,100.00
2022-08-16T03:52:20.090Z,100.00
2022-08-16T03:54:57.396Z,100.00
2022-08-16T03:57:32.120Z,100.00
2022-08-16T04:00:35.199Z,100.00
2022-08-16T04:03:07.279Z,100.00
2022-08-16T04:05:36.757Z,100.00
2022-08-16T04:08:22.738Z,100.00
2022-08-16T04:10:52.982Z,100.00
2022-08-16T04:14:01.097Z,100.00
2022-08-16T04:16:26.383Z,100.00
2022-08-16T04:19:02.004Z,100.00
2022-08-16T04:21:32.372Z,100.00
2022-08-16T04:24:00.652Z,100.00
2022-08-16T04:26:30.935Z,100.00
2022-08-16T04:29:17.257Z,100.00
2022-08-16T04:31:56.913Z,100.00
2022-08-16T04:34:27.366Z,100.00
2022-08-16T04:36:55.187Z,100.00
2022-08-16T04:39:24.933Z,100.00
2022-08-16T04:42:10.950Z,100.00
2022-08-16T04:44:54.190Z,100.00
2022-08-16T04:47:31.517Z,100.00
2022-08-16T04:50:00.781Z,100.00
2022-08-16T04:52:33.694Z,100.00
2022-08-16T04:55:06.069Z,100.00
2022-08-16T04:57:33.648Z,100.00
2022-08-16T05:00:31.917Z,100.00
2022-08-16T05:02:56.127Z,100.00
2022-08-16T05:05:24.463Z,100.00
2022-08-16T05:07:58.228Z,100.00
2022-08-16T05:10:29.741Z,100.00
2022-08-16T05:12:57.537Z,100.00
2022-08-16T05:15:25.720Z,100.00
2022-08-16T05:17:58.816Z,100.00
2022-08-16T05:20:38.564Z,100.00
2022-08-16T05:23:14.170Z,100.00
2022-08-16T05:25:48.561Z,100.00
2022-08-16T05:28:16.621Z,100.00
2022-08-16T05:30:44.330Z,100.00
2022-08-16T05:33:16.651Z,100.00
2022-08-16T05:35:55.410Z,100.00
2022-08-16T05:38:32.744Z,100.00
2022-08-16T05:41:09.261Z,100.00
2022-08-16T05:43:43.544Z,100.00
2022-08-16T05:46:30.084Z,100.00
2022-08-16T05:49:05.826Z,100.00
2022-08-16T05:51:39.090Z,100.00
2022-08-16T05:54:07.823Z,100.00
2022-08-16T05:56:37.776Z,100.00
2022-08-16T05:59:06.089Z,100.00
2022-08-16T06:01:38.359Z,100.00
2022-08-16T06:04:12.799Z,100.00
2022-08-16T06:06:43.402Z,100.00
2022-08-16T06:09:25.159Z,100.00
2022-08-16T06:11:53.376Z,100.00
2022-08-16T06:14:21.041Z,100.00
2022-08-16T06:16:50.787Z,100.00
2022-08-16T06:19:19.817Z,100.00
2022-08-16T06:21:55.072Z,100.00
2022-08-16T06:24:53.569Z,100.00
2022-08-16T06:27:11.015Z,100.00
2022-08-16T06:29:39.061Z,100.00
2022-08-16T06:32:07.086Z,100.00
2022-08-16T06:34:57.443Z,100.00
2022-08-16T06:37:23.521Z,100.00
2022-08-16T06:39:50.987Z,100.00
2022-08-16T06:42:19.106Z,100.00
2022-08-16T06:44:46.969Z,100.00
2022-08-16T06:47:16.840Z,100.00
2022-08-16T06:49:54.085Z,100.00
2022-08-16T06:52:59.865Z,100.00
2022-08-16T06:55:13.041Z,100.00
2022-08-16T06:57:41.362Z,100.00
2022-08-16T07:00:24.879Z,100.00
2022-08-16T07:02:54.020Z,100.00
2022-08-16T07:05:27.098Z,100.00
2022-08-16T07:08:11.649Z,100.00
2022-08-16T07:10:41.503Z,100.00
2022-08-16T07:13:11.618Z,100.00
2022-08-16T07:15:50.438Z,100.00
2022-08-16T07:18:20.046Z,100.00
2022-08-16T07:20:51.388Z,100.00
2022-08-16T07:23:18.788Z,100.00
2022-08-16T07:25:46.313Z,100.00
2022-08-16T07:28:20.700Z,100.00
2022-08-16T07:30:52.150Z,100.00
2022-08-16T07:33:52.984Z,100.00
2022-08-16T07:36:09.860Z,100.00
2022-08-16T07:38:38.074Z,100.00
2022-08-16T07:41:10.264Z,100.00
2022-08-16T07:43:40.529Z,100.00
2022-08-16T07:46:38.052Z,100.00
2022-08-16T07:49:02.505Z,100.00
2022-08-16T07:51:35.539Z,100.00
2022-08-16T07:54:09.287Z,100.00
2022-08-16T07:56:38.033Z,100.00
2022-08-16T07:59:05.721Z,100.00
2022-08-16T08:01:33.192Z,100.00
2022-08-16T08:04:02.875Z,100.00
2022-08-16T08:06:33.754Z,100.00
2022-08-16T08:09:01.841Z,100.00
2022-08-16T08:11:31.861Z,100.00
2022-08-16T08:14:03.509Z,100.00
2022-08-16T08:16:31.889Z,100.00
2022-08-16T08:19:02.865Z,100.00
2022-08-16T08:22:00.111Z,100.00
2022-08-16T08:24:22.277Z,100.00
2022-08-16T08:26:59.311Z,100.00
2022-08-16T08:29:37.185Z,100.00
2022-08-16T08:32:58.719Z,100.00
2022-08-16T08:35:00.512Z,100.00
2022-08-16T08:37:51.157Z,100.00
2022-08-16T08:40:24.662Z,100.00
2022-08-16T08:42:57.803Z,100.00
2022-08-16T08:45:48.477Z,100.00
2022-08-16T08:48:34.423Z,100.00
2022-08-16T08:51:03.434Z,100.00
2022-08-16T08:53:32.644Z,100.00
2022-08-16T08:56:01.289Z,100.00
2022-08-16T08:58:54.835Z,100.00
2022-08-16T09:01:31.896Z,100.00
2022-08-16T09:04:04.984Z,100.00
2022-08-16T09:06:32.817Z,100.00
2022-08-16T09:09:01.992Z,100.00
2022-08-16T09:11:40.728Z,100.00
2022-08-16T09:14:24.051Z,100.00
2022-08-16T09:17:01.128Z,100.00
2022-08-16T09:19:34.083Z,100.00
2022-08-16T09:22:03.248Z,100.00
2022-08-16T09:24:47.092Z,100.00
2022-08-16T09:27:20.745Z,100.00
2022-08-16T09:29:48.163Z,100.00
2022-08-16T09:32:30.285Z,100.00
2022-08-16T09:34:58.853Z,100.00
2022-08-16T09:37:29.139Z,100.00
2022-08-16T09:40:00.442Z,100.00
2022-08-16T09:42:29.895Z,100.00
2022-08-16T09:45:11.553Z,100.00
2022-08-16T09:47:57.038Z,100.00
2022-08-16T09:50:38.198Z,100.00
2022-08-16T09:53:15.448Z,100.00
2022-08-16T09:55:49.394Z,100.00
2022-08-16T09:58:40.617Z,100.00
2022-08-16T10:01:05.786Z,100.00
2022-08-16T10:03:36.076Z,98.47
2022-08-16T10:06:03.856Z,95.07
2022-08-16T10:08:31.513Z,100.00
2022-08-16T10:11:24.029Z,95.47
2022-08-16T10:13:52.298Z,100.00
2022-08-16T10:16:22.041Z,99.41
2022-08-16T10:19:01.661Z,99.88
2022-08-16T10:21:35.445Z,100.00
2022-08-16T10:24:03.382Z,99.35
2022-08-16T10:27:20.023Z,91.28
2022-08-16T10:29:21.232Z,95.05
2022-08-16T10:31:53.549Z,100.00
2022-08-16T10:34:30.846Z,100.00
2022-08-16T10:37:00.374Z,100.00
2022-08-16T10:39:40.537Z,100.00
2022-08-16T10:42:13.290Z,100.00
2022-08-16T10:44:42.327Z,100.00
2022-08-16T10:47:11.545Z,96.16
2022-08-16T10:49:39.234Z,100.00
2022-08-16T10:52:18.067Z,94.09
2022-08-16T10:57:35.351Z,89.29
2022-08-16T11:00:06.729Z,92.17
2022-08-16T11:02:59.168Z,96.08
2022-08-16T11:05:59.088Z,95.65
2022-08-16T11:08:17.972Z,90.53
2022-08-16T11:11:07.006Z,89.85
2022-08-16T11:19:17.445Z,94.85
2022-08-16T11:24:41.701Z,89.03
2022-08-16T11:27:23.314Z,92.73
2022-08-16T11:29:55.742Z,85.80
2022-08-16T11:32:31.416Z,84.09
2022-08-16T11:35:11.031Z,79.82
2022-08-16T11:40:38.527Z,82.12
2022-08-16T11:43:06.674Z,84.17
2022-08-16T11:45:39.260Z,86.66
2022-08-16T11:48:10.341Z,83.21
2022-08-16T11:50:37.836Z,81.44
2022-08-16T11:53:08.265Z,81.09
2022-08-16T11:55:38.015Z,86.09
2022-08-16T11:58:08.069Z,81.22
2022-08-16T12:00:51.063Z,89.07
2022-08-16T12:03:21.827Z,84.52
2022-08-16T12:06:00.532Z,84.19
2022-08-16T12:08:28.134Z,82.01
2022-08-16T12:10:59.412Z,83.30
2022-08-16T12:13:29.665Z,80.57
2022-08-16T12:15:58.776Z,81.51
2022-08-16T12:18:26.487Z,83.46
2022-08-16T12:20:55.223Z,75.99
2022-08-16T12:23:26.718Z,78.02
2022-08-16T12:25:54.173Z,77.98
2022-08-16T12:28:36.697Z,78.79
2022-08-16T12:31:06.097Z,77.08
2022-08-16T12:33:44.480Z,75.99
2022-08-16T12:36:13.256Z,74.94
2022-08-16T12:38:48.351Z,74.56
2022-08-16T12:41:24.291Z,76.11
2022-08-16T12:43:52.219Z,73.23
2022-08-16T12:46:20.962Z,75.67
2022-08-16T12:49:00.564Z,71.60
2022-08-16T12:51:57.976Z,71.74
2022-08-16T12:54:19.728Z,80.72
2022-08-16T12:56:48.145Z,69.72
2022-08-16T12:59:20.376Z,73.34
2022-08-16T13:01:50.447Z,74.39
2022-08-16T13:04:24.712Z,71.32
2022-08-16T13:06:53.036Z,71.45
2022-08-16T13:09:21.452Z,73.38
2022-08-16T13:11:59.917Z,77.57
2022-08-16T13:14:32.181Z,74.13
2022-08-16T13:17:03.067Z,74.39
2022-08-16T13:19:56.392Z,69.98
2022-08-16T13:22:21.385Z,67.50
2022-08-16T13:24:50.592Z,71.34
2022-08-16T13:27:18.811Z,77.29
2022-08-16T13:29:57.385Z,74.16
2022-08-16T13:32:39.718Z,69.14
2022-08-16T13:35:11.657Z,71.91
2022-08-16T13:37:39.742Z,81.11
2022-08-16T13:40:20.020Z,80.30
2022-08-16T13:42:48.159Z,70.93
2022-08-16T13:45:17.030Z,74.20
2022-08-16T13:47:52.880Z,72.05
2022-08-16T13:50:31.544Z,70.85
2022-08-16T13:53:08.098Z,72.30
2022-08-16T13:55:35.486Z,70.55
2022-08-16T13:58:36.935Z,71.40
2022-08-16T14:00:52.929Z,66.20
2022-08-16T14:03:22.034Z,68.69
2022-08-16T14:05:52.679Z,67.27
2022-08-16T14:08:23.901Z,62.60
2022-08-16T14:10:54.222Z,67.73
2022-08-16T14:13:21.767Z,71.79
2022-08-16T14:15:49.395Z,67.56
2022-08-16T14:18:20.424Z,73.48
2022-08-16T14:20:51.050Z,66.75
2022-08-16T14:23:23.712Z,70.33
2022-08-16T14:25:53.938Z,82.95
2022-08-16T14:28:23.735Z,72.42
2022-08-16T14:30:53.367Z,70.97
2022-08-16T14:33:21.416Z,73.86
2022-08-16T14:35:50.957Z,77.18
2022-08-16T14:38:23.706Z,70.82
2022-08-16T14:40:54.963Z,70.44
2022-08-16T14:43:23.119Z,66.37
2022-08-16T14:45:50.825Z,70.02
2022-08-16T14:48:25.815Z,72.21
2022-08-16T14:50:55.696Z,76.27
2022-08-16T14:53:24.651Z,76.93
2022-08-16T14:55:54.079Z,72.53
2022-08-16T14:58:34.823Z,72.45
2022-08-16T15:01:04.755Z,74.92
2022-08-16T15:03:33.128Z,80.43
2022-08-16T15:06:07.045Z,71.55
2022-08-16T15:08:40.344Z,69.10
2022-08-16T15:11:08.068Z,68.05
2022-08-16T15:13:35.932Z,66.90
2022-08-16T15:16:03.847Z,71.20
2022-08-16T15:18:32.331Z,69.11
2022-08-16T15:21:00.578Z,74.92
2022-08-16T15:23:31.431Z,72.53
2022-08-16T15:26:03.668Z,74.66
2022-08-16T15:28:32.522Z,76.82
2022-08-16T15:31:03.662Z,79.60
2022-08-16T15:33:33.002Z,80.39
2022-08-16T15:36:02.252Z,90.19
2022-08-16T15:39:02.554Z,74.54
2022-08-16T15:42:03.120Z,70.97
2022-08-16T15:44:44.725Z,72.29
2022-08-16T15:47:22.193Z,73.28
2022-08-16T15:49:55.559Z,76.68
2022-08-16T15:52:29.718Z,83.82
2022-08-16T15:54:58.428Z,84.14
2022-08-16T15:57:30.241Z,93.60
2022-08-16T16:00:14.547Z,95.14
2022-08-16T16:02:42.586Z,92.55
2022-08-16T16:05:11.314Z,97.22
2022-08-16T16:07:41.050Z,100.00
2022-08-16T16:10:29.303Z,98.88
2022-08-16T16:13:00.792Z,94.11
2022-08-16T16:15:32.896Z,86.46
2022-08-16T16:18:09.579Z,90.53
2022-08-16T16:20:39.163Z,91.78
2022-08-16T16:23:10.663Z,91.90
2022-08-16T16:25:39.483Z,91.62
2022-08-16T16:29:05.479Z,96.24
2022-08-16T16:31:04.622Z,97.54
2022-08-16T16:33:34.045Z,90.49
2022-08-16T16:36:03.922Z,81.16
2022-08-16T16:38:34.730Z,85.59
2022-08-16T16:41:04.756Z,88.61
2022-08-16T16:43:40.756Z,84.81
2022-08-16T16:46:40.849Z,87.07
2022-08-16T16:48:56.972Z,90.67
2022-08-16T16:51:27.895Z,92.16
2022-08-16T16:53:57.176Z,89.88
2022-08-16T16:56:30.290Z,91.33
2022-08-16T16:59:04.578Z,92.89
2022-08-16T17:01:56.858Z,89.79
2022-08-16T17:04:31.220Z,95.42
2022-08-16T17:06:59.852Z,94.39
2022-08-16T17:09:27.535Z,93.64
2022-08-16T17:11:55.898Z,90.97
2022-08-16T17:14:33.196Z,94.40
2022-08-16T17:17:01.534Z,99.46
2022-08-16T17:19:31.446Z,100.00
2022-08-16T17:21:59.343Z,100.00
2022-08-16T17:24:33.240Z,100.00
2022-08-16T17:27:07.754Z,100.00
2022-08-16T17:29:45.914Z,99.66
2022-08-16T17:32:34.315Z,100.00
2022-08-16T17:35:08.583Z,100.00
2022-08-16T17:39:27.327Z,100.00
2022-08-16T17:40:47.399Z,100.00
2022-08-16T17:43:19.150Z,100.00
2022-08-16T17:45:49.169Z,100.00
2022-08-16T17:48:17.007Z,100.00
2022-08-16T17:50:45.453Z,100.00
2022-08-16T17:53:14.544Z,100.00
2022-08-16T17:55:46.528Z,100.00
2022-08-16T17:58:22.477Z,100.00
2022-08-16T18:00:55.159Z,100.00
2022-08-16T18:04:02.740Z,100.00
2022-08-16T18:06:15.625Z,100.00
2022-08-16T18:08:43.124Z,100.00
2022-08-16T18:11:12.744Z,100.00
2022-08-16T18:13:43.197Z,100.00
2022-08-16T18:16:12.404Z,100.00
2022-08-16T18:18:39.780Z,100.00
2022-08-16T18:21:24.896Z,100.00
2022-08-16T18:23:52.591Z,100.00
2022-08-16T18:26:20.203Z,100.00
2022-08-16T18:28:47.595Z,100.00
2022-08-16T18:31:16.296Z,100.00
2022-08-16T18:33:44.219Z,100.00
2022-08-16T18:36:20.827Z,100.00
2022-08-16T18:38:49.119Z,100.00
2022-08-16T18:41:16.827Z,100.00
2022-08-16T18:44:23.059Z,100.00
2022-08-16T18:46:32.975Z,100.00
2022-08-16T18:49:00.445Z,100.00
2022-08-16T18:51:27.838Z,100.00
2022-08-16T18:53:55.739Z,100.00
2022-08-16T18:56:23.279Z,100.00
2022-08-16T18:59:10.676Z,100.00
2022-08-16T19:01:40.524Z,100.00
2022-08-16T19:04:55.532Z,100.00
2022-08-16T19:06:55.406Z,100.00
2022-08-16T19:09:22.907Z,100.00
2022-08-16T19:11:50.354Z,100.00
2022-08-16T19:14:18.220Z,100.00
2022-08-16T19:16:47.127Z,100.00
2022-08-16T19:19:15.916Z,100.00
2022-08-16T19:21:43.374Z,100.00
2022-08-16T19:24:18.163Z,100.00
2022-08-16T19:26:45.939Z,100.00
2022-08-16T19:29:13.553Z,100.00
2022-08-16T19:31:41.239Z,100.00
2022-08-16T19:34:11.083Z,100.00
2022-08-16T19:36:40.745Z,100.00
2022-08-16T19:39:11.850Z,100.00
2022-08-16T19:41:41.930Z,100.00
2022-08-16T19:44:10.032Z,100.00
2022-08-16T19:46:38.154Z,100.00
2022-08-16T19:49:06.018Z,100.00
2022-08-16T19:51:34.782Z,100.00
2022-08-16T19:54:02.203Z,100.00
2022-08-16T19:56:29.648Z,100.00
2022-08-16T20:01:45.211Z,100.00
2022-08-16T20:04:13.248Z,100.00
2022-08-16T20:06:42.844Z,100.00
2022-08-16T20:09:12.639Z,100.00
2022-08-16T20:11:42.987Z,100.00
2022-08-16T20:14:10.486Z,100.00
2022-08-16T20:16:37.917Z,100.00
2022-08-16T20:19:05.982Z,100.00
2022-08-16T20:21:33.411Z,100.00
2022-08-16T20:24:32.099Z,100.00
2022-08-16T20:26:49.803Z,100.00
2022-08-16T20:29:17.299Z,100.00
2022-08-16T20:31:44.743Z,100.00
2022-08-16T20:34:12.154Z,100.00
2022-08-16T20:36:39.592Z,100.00
2022-08-16T20:39:09.478Z,100.00
2022-08-16T20:41:36.900Z,100.00
2022-08-16T20:44:04.755Z,100.00
2022-08-16T20:46:39.870Z,100.00
2022-08-16T20:49:09.242Z,100.00
2022-08-16T20:51:50.936Z,100.00
2022-08-16T20:54:22.518Z,100.00
2022-08-16T20:56:49.966Z,100.00
2022-08-16T20:59:17.864Z,100.00
2022-08-16T21:01:46.426Z,100.00
2022-08-16T21:04:18.826Z,100.00
2022-08-16T21:06:53.562Z,100.00
2022-08-16T21:09:24.756Z,100.00
2022-08-16T21:11:54.691Z,100.00
2022-08-16T21:14:22.552Z,100.00
2022-08-16T21:16:49.981Z,100.00
2022-08-16T21:19:17.568Z,100.00
2022-08-16T21:21:45.034Z,100.00
2022-08-16T21:24:14.108Z,100.00
2022-08-16T21:26:44.186Z,100.00
2022-08-16T21:29:23.143Z,100.00
2022-08-16T21:31:52.544Z,100.00
2022-08-16T21:34:19.962Z,100.00
2022-08-16T21:36:47.399Z,100.00
2022-08-16T21:39:14.800Z,100.00
2022-08-16T21:41:43.532Z,100.00
2022-08-16T21:44:10.928Z,100.00
2022-08-16T21:46:38.345Z,100.00
2022-08-16T21:49:05.863Z,100.00
2022-08-16T21:51:33.267Z,100.00
2022-08-16T21:54:00.676Z,100.00
2022-08-16T21:56:29.131Z,100.00
2022-08-16T21:58:57.912Z,100.00
2022-08-16T22:01:26.394Z,100.00
2022-08-16T22:04:03.520Z,100.00
2022-08-16T22:06:42.612Z,100.00
2022-08-16T22:09:11.824Z,100.00
2022-08-16T22:11:39.578Z,100.00
2022-08-16T22:14:08.606Z,100.00
2022-08-16T22:16:39.676Z,100.00
2022-08-16T22:19:07.160Z,100.00
2022-08-16T22:21:35.528Z,100.00
2022-08-16T22:24:03.399Z,100.00
2022-08-16T22:26:33.561Z,100.00
2022-08-16T22:29:02.468Z,100.00
2022-08-16T22:31:31.235Z,100.00
2022-08-16T22:33:59.271Z,100.00
2022-08-16T22:36:27.945Z,100.00
2022-08-16T22:38:57.792Z,100.00
2022-08-16T22:41:26.739Z,100.00
2022-08-16T22:43:54.274Z,100.00
2022-08-16T22:46:21.698Z,100.00
2022-08-16T22:48:50.986Z,100.00
2022-08-16T22:51:19.495Z,100.00
2022-08-16T22:53:47.057Z,100.00
2022-08-16T22:56:15.514Z,100.00
2022-08-16T22:58:43.394Z,100.00
2022-08-16T23:01:12.742Z,100.00
2022-08-16T23:03:40.724Z,100.00
2022-08-16T23:06:11.042Z,100.00
2022-08-16T23:08:41.203Z,100.00
2022-08-16T23:11:10.959Z,100.00
2022-08-16T23:13:52.557Z,100.00
2022-08-16T23:16:25.039Z,100.00
2022-08-16T23:19:00.634Z,100.00
2022-08-16T23:21:29.369Z,100.00
2022-08-16T23:23:56.758Z,100.00
2022-08-16T23:26:44.636Z,100.00
2022-08-16T23:29:15.926Z,100.00
2022-08-16T23:31:53.567Z,100.00
2022-08-16T23:34:21.299Z,100.00
2022-08-16T23:36:50.203Z,100.00
2022-08-16T23:39:17.637Z,100.00
2022-08-16T23:41:45.093Z,100.00
2022-08-16T23:44:58.649Z,100.00
2022-08-16T23:46:59.920Z,100.00
2022-08-16T23:49:56.134Z,100.00
2022-08-16T23:52:16.241Z,100.00
2022-08-16T23:54:43.699Z,100.00
2022-08-16T23:57:11.119Z,100.00
2022-08-16T23:59:52.254Z,100.00
